createdAt,value
2022-12-29T00:00:38.880Z,96267.93
2022-12-29T00:03:13.845Z,96270.14
2022-12-29T00:05:44.279Z,96266.09
2022-12-29T00:08:14.606Z,96267.16
2022-12-29T00:10:45.241Z,96264.75
2022-12-29T00:13:31.709Z,96262.34
2022-12-29T00:16:00.668Z,96272.76
2022-12-29T00:18:29.825Z,96273.48
2022-12-29T00:21:16.138Z,96265.42
2022-12-29T00:24:04.389Z,96267.27
2022-12-29T00:26:50.892Z,96273.98
2022-12-29T00:29:37.908Z,96273.87
2022-12-29T00:32:26.679Z,96279.08
2022-12-29T00:35:10.726Z,96279.05
2022-12-29T00:38:00.205Z,96287.64
2022-12-29T00:40:46.741Z,96282.70
2022-12-29T00:43:33.217Z,96282.12
2022-12-29T00:46:01.868Z,96287.44
2022-12-29T00:48:48.648Z,96290.52
2022-12-29T00:51:17.347Z,96290.73
2022-12-29T00:53:47.057Z,96291.33
2022-12-29T00:56:16.082Z,96296.95
2022-12-29T00:58:46.562Z,96294.83
2022-12-29T01:01:15.345Z,96290.60
2022-12-29T01:03:44.115Z,96290.98
2022-12-29T01:06:13.627Z,96294.47
2022-12-29T01:08:42.911Z,96288.84
2022-12-29T01:11:14.202Z,96289.80
2022-12-29T01:13:44.485Z,96290.34
2022-12-29T01:16:13.329Z,96281.39
2022-12-29T01:18:42.127Z,96265.68
2022-12-29T01:21:13.664Z,96276.95
2022-12-29T01:23:49.909Z,96278.52
2022-12-29T01:26:19.679Z,96281.59
2022-12-29T01:28:54.527Z,96274.56
2022-12-29T01:31:23.596Z,96277.30
2022-12-29T01:33:52.931Z,96278.52
2022-12-29T01:36:22.004Z,96272.67
2022-12-29T01:38:52.224Z,96266.72
2022-12-29T01:41:21.381Z,96263.05
2022-12-29T01:43:52.688Z,96272.38
2022-12-29T01:46:42.060Z,96260.77
2022-12-29T01:49:16.178Z,96246.66
2022-12-29T01:51:49.629Z,96256.68
2022-12-29T01:54:24.162Z,96258.01
2022-12-29T01:56:55.891Z,96251.48
2022-12-29T01:59:27.617Z,96247.55
2022-12-29T02:01:59.298Z,96245.45
2022-12-29T02:04:33.258Z,96245.30
2022-12-29T02:07:09.270Z,96241.27
2022-12-29T02:09:38.538Z,96239.62
2022-12-29T02:12:09.574Z,96236.50
2022-12-29T02:14:38.375Z,96240.21
2022-12-29T02:17:21.994Z,96242.66
2022-12-29T02:20:02.531Z,96244.84
2022-12-29T02:22:56.554Z,96243.63
2022-12-29T02:25:57.078Z,96239.05
2022-12-29T02:28:37.424Z,96242.86
2022-12-29T02:31:21.064Z,96237.88
2022-12-29T02:33:58.720Z,96235.01
2022-12-29T02:36:57.833Z,96238.66
2022-12-29T02:39:44.231Z,96238.66
2022-12-29T02:42:18.809Z,96242.89
2022-12-29T02:45:08.551Z,96237.03
2022-12-29T02:47:42.950Z,96235.01
2022-12-29T02:50:26.715Z,96234.05
2022-12-29T02:53:01.133Z,96238.36
2022-12-29T02:55:29.822Z,96235.01
2022-12-29T02:58:19.653Z,96235.59
2022-12-29T03:00:57.707Z,96230.19
2022-12-29T03:03:44.299Z,96216.16
2022-12-29T03:06:34.360Z,96224.75
2022-12-29T03:09:19.178Z,96229.38
2022-12-29T03:12:00.136Z,96224.63
2022-12-29T03:14:49.412Z,96225.53
2022-12-29T03:17:37.659Z,96215.31
2022-12-29T03:20:12.278Z,96220.33
2022-12-29T03:22:43.840Z,96222.15
2022-12-29T03:25:33.545Z,96212.41
2022-12-29T03:28:09.007Z,96210.38
2022-12-29T03:30:40.433Z,96213.10
2022-12-29T03:33:12.127Z,96214.84
2022-12-29T03:35:48.472Z,96215.16
2022-12-29T03:38:20.030Z,96218.81
2022-12-29T03:40:54.514Z,96216.42
2022-12-29T03:43:23.497Z,96217.70
2022-12-29T03:45:52.172Z,96214.42
2022-12-29T03:48:21.085Z,96221.30
2022-12-29T03:50:49.710Z,96224.28
2022-12-29T03:53:18.712Z,96224.28
2022-12-29T03:55:47.656Z,96222.29
2022-12-29T03:58:16.287Z,96234.50
2022-12-29T04:00:46.621Z,96236.06
2022-12-29T04:03:15.300Z,96231.75
2022-12-29T04:05:43.910Z,96242.52
2022-12-29T04:08:12.616Z,96242.27
2022-12-29T04:10:41.437Z,96242.27
2022-12-29T04:13:10.065Z,96244.58
2022-12-29T04:15:40.345Z,96239.47
2022-12-29T04:18:09.046Z,96241.01
2022-12-29T04:20:41.770Z,96237.49
2022-12-29T04:23:10.919Z,96241.47
2022-12-29T04:25:41.062Z,96241.06
2022-12-29T04:28:09.741Z,96241.92
2022-12-29T04:30:38.567Z,96239.75
2022-12-29T04:33:07.113Z,96249.34
2022-12-29T04:35:36.372Z,96245.02
2022-12-29T04:38:05.529Z,96245.02
2022-12-29T04:40:34.241Z,96251.92
2022-12-29T04:43:03.148Z,96251.92
2022-12-29T04:45:31.872Z,96254.85
2022-12-29T04:48:00.674Z,96254.23
2022-12-29T04:50:30.403Z,96262.61
2022-12-29T04:52:59.142Z,96268.06
2022-12-29T04:55:28.194Z,96273.57
2022-12-29T04:58:08.201Z,96276.30
2022-12-29T05:00:48.658Z,96278.91
2022-12-29T05:03:25.932Z,96274.70
2022-12-29T05:06:04.959Z,96270.12
2022-12-29T05:08:35.836Z,96268.85
2022-12-29T05:11:07.864Z,96270.70
2022-12-29T05:13:38.801Z,96273.21
2022-12-29T05:16:12.945Z,96277.20
2022-12-29T05:18:42.254Z,96275.46
2022-12-29T05:21:15.604Z,96273.58
2022-12-29T05:23:48.013Z,96274.95
2022-12-29T05:26:20.174Z,96269.52
2022-12-29T05:28:56.003Z,96270.47
2022-12-29T05:31:48.216Z,96264.90
2022-12-29T05:34:34.629Z,96274.81
2022-12-29T05:37:01.182Z,96279.47
2022-12-29T05:39:34.307Z,96272.88
2022-12-29T05:42:06.721Z,96272.50
2022-12-29T05:44:47.744Z,96274.45
2022-12-29T05:47:18.534Z,96280.17
2022-12-29T05:49:52.155Z,96279.88
2022-12-29T05:52:50.144Z,96267.45
2022-12-29T05:55:28.464Z,96267.88
2022-12-29T05:58:04.678Z,96281.63
2022-12-29T06:00:41.541Z,96281.63
2022-12-29T06:03:09.404Z,96287.27
2022-12-29T06:05:42.125Z,96286.42
2022-12-29T06:08:24.096Z,96285.88
2022-12-29T06:11:12.321Z,96285.65
2022-12-29T06:13:45.464Z,96294.30
2022-12-29T06:16:19.335Z,96294.47
2022-12-29T06:18:55.116Z,96295.34
2022-12-29T06:21:33.450Z,96292.50
2022-12-29T06:24:05.672Z,96297.73
2022-12-29T06:26:38.299Z,96287.83
2022-12-29T06:29:13.182Z,96293.66
2022-12-29T06:31:54.778Z,96295.64
2022-12-29T06:34:27.857Z,96298.39
2022-12-29T06:37:04.066Z,96294.49
2022-12-29T06:43:02.890Z,96305.95
2022-12-29T06:45:37.732Z,96304.33
2022-12-29T06:48:10.671Z,96307.75
2022-12-29T06:50:54.915Z,96304.02
2022-12-29T06:53:27.024Z,96306.39
2022-12-29T06:56:22.483Z,96308.93
2022-12-29T07:08:35.594Z,96320.05
2022-12-29T07:11:16.238Z,96324.77
2022-12-29T07:14:12.345Z,96317.84
2022-12-29T07:17:10.285Z,96319.80
2022-12-29T07:19:40.194Z,96308.53
2022-12-29T07:28:04.730Z,96311.37
2022-12-29T07:31:05.638Z,96315.50
2022-12-29T07:33:10.846Z,96316.14
2022-12-29T07:35:39.955Z,96313.02
2022-12-29T07:38:21.048Z,96312.44
2022-12-29T07:40:49.480Z,96317.81
2022-12-29T07:43:29.287Z,96320.11
2022-12-29T07:49:19.818Z,96318.30
2022-12-29T07:51:56.331Z,96323.38
2022-12-29T07:54:43.645Z,96317.52
2022-12-29T07:57:29.663Z,96319.24
2022-12-29T07:59:58.562Z,96329.03
2022-12-29T08:02:56.589Z,96329.97
2022-12-29T08:07:12.927Z,96313.72
2022-12-29T08:08:48.028Z,96316.90
2022-12-29T08:11:43.668Z,96331.24
2022-12-29T08:20:15.901Z,96325.45
2022-12-29T08:20:55.835Z,96329.14
2022-12-29T08:23:03.305Z,96319.47
2022-12-29T08:25:45.283Z,96321.83
2022-12-29T08:28:41.751Z,96324.38
2022-12-29T08:31:20.314Z,96316.20
2022-12-29T08:38:16.539Z,96314.45
2022-12-29T08:49:16.264Z,96324.87
2022-12-29T08:51:54.416Z,96323.23
2022-12-29T08:54:18.121Z,96316.34
2022-12-29T08:56:56.934Z,96313.77
2022-12-29T08:59:30.056Z,96311.17
2022-12-29T09:02:02.838Z,96306.97
2022-12-29T09:04:38.653Z,96305.70
2022-12-29T09:07:11.898Z,96309.95
2022-12-29T09:09:51.740Z,96302.63
2022-12-29T09:12:47.863Z,96300.00
2022-12-29T09:15:13.973Z,96227.22
2022-12-29T09:17:44.671Z,96294.83
2022-12-29T09:20:15.625Z,96290.22
2022-12-29T09:22:44.723Z,96290.41
2022-12-29T09:25:14.240Z,96288.00
2022-12-29T09:27:42.989Z,96291.66
2022-12-29T09:30:15.455Z,96289.23
2022-12-29T09:32:45.836Z,96282.92
2022-12-29T09:35:19.209Z,96283.67
2022-12-29T09:37:47.861Z,96281.75
2022-12-29T09:40:31.545Z,96278.12
2022-12-29T09:47:08.024Z,96268.77
2022-12-29T09:52:59.928Z,96262.81
2022-12-29T09:55:45.329Z,96266.49
2022-12-29T09:58:42.898Z,96255.73
2022-12-29T10:01:46.562Z,96260.14
2022-12-29T10:14:18.920Z,96243.22
2022-12-29T10:24:09.176Z,96232.31
2022-12-29T10:33:06.341Z,96230.22
2022-12-29T10:37:00.865Z,96224.69
2022-12-29T10:39:30.785Z,96226.14
2022-12-29T10:42:38.344Z,96207.30
2022-12-29T10:45:08.445Z,96218.80
2022-12-29T10:47:40.026Z,96208.41
2022-12-29T10:50:09.397Z,96215.35
2022-12-29T10:52:56.844Z,96208.02
2022-12-29T11:05:20.079Z,96189.88
2022-12-29T11:11:00.440Z,96181.75
2022-12-29T11:14:00.515Z,96175.09
2022-12-29T11:16:55.585Z,96176.27
2022-12-29T11:29:32.639Z,96168.53
2022-12-29T11:35:41.174Z,96167.58
2022-12-29T11:45:41.506Z,96158.54
2022-12-29T11:56:45.050Z,96140.93
2022-12-29T12:01:47.726Z,96146.48
2022-12-29T12:04:28.336Z,96148.62
2022-12-29T12:07:15.937Z,96148.80
2022-12-29T12:09:50.675Z,96142.17
2022-12-29T12:12:30.027Z,96146.64
2022-12-29T12:15:01.019Z,96146.58
2022-12-29T12:17:37.332Z,96138.84
2022-12-29T12:20:09.092Z,96145.58
2022-12-29T12:22:48.849Z,96141.11
2022-12-29T12:25:29.298Z,96139.27
2022-12-29T12:28:09.912Z,96132.84
2022-12-29T12:30:41.873Z,96138.30
2022-12-29T12:33:16.641Z,96130.32
2022-12-29T12:35:51.585Z,96131.92
2022-12-29T12:38:44.676Z,96121.77
2022-12-29T12:41:25.564Z,96128.38
2022-12-29T12:44:06.232Z,96123.14
2022-12-29T12:46:41.066Z,96121.38
2022-12-29T12:49:44.478Z,96120.87
2022-12-29T12:52:40.310Z,96121.20
2022-12-29T12:55:31.286Z,96120.05
2022-12-29T12:58:11.772Z,96116.30
2022-12-29T13:00:46.084Z,96113.12
2022-12-29T13:03:40.258Z,96118.00
2022-12-29T13:06:27.137Z,96120.20
2022-12-29T13:09:17.086Z,96117.94
2022-12-29T13:12:13.033Z,96115.89
2022-12-29T13:15:02.560Z,96114.78
2022-12-29T13:17:34.275Z,96116.80
2022-12-29T13:20:33.177Z,96121.92
2022-12-29T13:23:21.384Z,96109.85
2022-12-29T13:26:02.044Z,96117.01
2022-12-29T13:28:42.529Z,96116.98
2022-12-29T13:31:37.192Z,96123.64
2022-12-29T13:34:28.837Z,96122.09
2022-12-29T13:37:01.162Z,96124.42
2022-12-29T13:39:42.032Z,96116.29
2022-12-29T13:42:16.162Z,96124.59
2022-12-29T13:45:05.589Z,96117.64
2022-12-29T13:47:37.179Z,96122.19
2022-12-29T13:50:09.178Z,96118.81
2022-12-29T13:52:40.784Z,96119.65
2022-12-29T13:55:29.188Z,96120.81
2022-12-29T13:58:06.681Z,96123.16
2022-12-29T14:00:40.946Z,96117.05
2022-12-29T14:03:26.507Z,96124.23
2022-12-29T14:06:06.555Z,96127.95
2022-12-29T14:08:36.857Z,96130.61
2022-12-29T14:11:08.437Z,96128.55
2022-12-29T14:13:40.985Z,96128.45
2022-12-29T14:16:12.874Z,96128.05
2022-12-29T14:18:46.797Z,96130.74
2022-12-29T14:21:26.441Z,96130.80
2022-12-29T14:23:55.428Z,96137.45
2022-12-29T14:26:36.500Z,96137.00
2022-12-29T14:29:27.819Z,96128.57
2022-12-29T14:31:56.893Z,96143.59
2022-12-29T14:34:31.252Z,96140.70
2022-12-29T14:37:04.208Z,96141.98
2022-12-29T14:42:43.008Z,96145.20
2022-12-29T14:45:23.182Z,96144.25
2022-12-29T14:47:55.591Z,96149.31
2022-12-29T14:50:36.246Z,96146.41
2022-12-29T14:53:08.139Z,96150.89
2022-12-29T14:55:59.207Z,96142.96
2022-12-29T14:58:36.514Z,96151.92
2022-12-29T15:01:05.381Z,96151.72
2022-12-29T15:03:41.157Z,96153.60
2022-12-29T15:06:16.816Z,96147.84
2022-12-29T15:09:25.583Z,96151.16
2022-12-29T15:17:55.830Z,96143.50
2022-12-29T15:20:32.690Z,96140.47
2022-12-29T15:26:34.861Z,96144.48
2022-12-29T15:35:43.257Z,96134.80
2022-12-29T15:38:42.953Z,96136.44
2022-12-29T15:42:46.763Z,96134.86
2022-12-29T15:48:02.425Z,96141.78
2022-12-29T15:57:05.366Z,96140.00
2022-12-29T16:06:04.008Z,96148.82
2022-12-29T16:08:41.134Z,96144.17
2022-12-29T16:11:31.291Z,96142.62
2022-12-29T16:14:07.838Z,96144.78
2022-12-29T16:16:39.815Z,96148.66
2022-12-29T16:19:15.406Z,96150.61
2022-12-29T16:21:53.282Z,96144.94
2022-12-29T16:24:38.151Z,96145.59
2022-12-29T16:27:25.522Z,96133.77
2022-12-29T16:30:00.483Z,96139.89
2022-12-29T16:32:39.437Z,96140.14
2022-12-29T16:35:44.385Z,96143.22
2022-12-29T16:39:05.771Z,96139.29
2022-12-29T16:44:32.894Z,96143.11
2022-12-29T16:47:25.574Z,96145.78
2022-12-29T16:55:56.652Z,96158.31
2022-12-29T17:01:30.634Z,96161.80
2022-12-29T17:04:19.856Z,96158.86
2022-12-29T17:10:07.074Z,96167.52
2022-12-29T17:12:55.660Z,96149.03
2022-12-29T17:15:45.274Z,96172.54
2022-12-29T17:18:33.658Z,96172.08
2022-12-29T17:21:26.955Z,96169.59
2022-12-29T17:30:20.261Z,96158.63
2022-12-29T17:33:10.061Z,96158.27
2022-12-29T17:42:09.176Z,96154.34
2022-12-29T17:48:30.548Z,96154.97
2022-12-29T17:53:59.739Z,96157.84
2022-12-29T18:06:20.731Z,96079.56
2022-12-29T18:09:01.719Z,96159.73
2022-12-29T18:11:49.637Z,96150.16
2022-12-29T18:14:29.876Z,96150.46
2022-12-29T18:17:00.632Z,96149.77
2022-12-29T18:22:49.547Z,96150.77
2022-12-29T18:31:50.124Z,96152.37
2022-12-29T18:34:24.691Z,96151.69
2022-12-29T18:43:38.539Z,96158.56
2022-12-29T18:49:02.720Z,96152.14
2022-12-29T18:51:54.600Z,96151.20
2022-12-29T18:57:49.825Z,96153.95
2022-12-29T19:00:21.337Z,96153.64
2022-12-29T19:02:55.051Z,96150.52
2022-12-29T19:07:40.570Z,96153.38
2022-12-29T19:08:32.222Z,96155.02
2022-12-29T19:11:09.306Z,96160.80
2022-12-29T19:13:54.826Z,96158.30
2022-12-29T19:16:26.332Z,96161.44
2022-12-29T19:19:09.228Z,96165.59
2022-12-29T19:21:28.237Z,96080.85
2022-12-29T19:23:57.416Z,96147.72
2022-12-29T19:26:36.249Z,96149.33
2022-12-29T19:29:06.644Z,96150.44
2022-12-29T19:31:36.053Z,96146.39
2022-12-29T19:34:04.959Z,96147.30
2022-12-29T19:36:40.903Z,96145.59
2022-12-29T19:39:09.741Z,96146.55
2022-12-29T19:41:39.114Z,96149.47
2022-12-29T19:44:08.597Z,96158.38
2022-12-29T19:46:41.874Z,96156.76
2022-12-29T19:49:13.045Z,96150.41
2022-12-29T19:54:33.580Z,96150.08
2022-12-29T20:00:03.746Z,96155.95
2022-12-29T20:02:35.465Z,96160.52
2022-12-29T20:05:04.761Z,96157.70
2022-12-29T20:07:33.895Z,96156.12
2022-12-29T20:10:03.393Z,96162.23
2022-12-29T20:12:33.397Z,96161.29
2022-12-29T20:20:49.184Z,96162.21
2022-12-29T20:23:18.001Z,96171.72
2022-12-29T20:25:47.696Z,96174.28
2022-12-29T20:28:17.121Z,96172.64
2022-12-29T20:30:46.313Z,96164.84
2022-12-29T20:33:25.967Z,96165.33
2022-12-29T20:35:55.109Z,96165.25
2022-12-29T20:38:23.987Z,96168.36
2022-12-29T20:43:48.392Z,96164.98
2022-12-29T20:53:21.028Z,96174.95
2022-12-29T20:59:29.036Z,96176.69
2022-12-29T21:08:48.377Z,96178.77
2022-12-29T21:11:18.651Z,96182.05
2022-12-29T21:13:47.492Z,96175.13
2022-12-29T21:16:19.115Z,96178.80
2022-12-29T21:18:51.411Z,96177.08
2022-12-29T21:21:23.376Z,96175.92
2022-12-29T21:23:55.960Z,96181.05
2022-12-29T21:26:26.039Z,96182.84
2022-12-29T21:28:56.425Z,96174.36
2022-12-29T21:31:36.356Z,96175.23
2022-12-29T21:34:09.715Z,96170.23
2022-12-29T21:36:41.680Z,96168.75
2022-12-29T21:39:11.785Z,96168.20
2022-12-29T21:41:42.350Z,96166.64
2022-12-29T21:44:30.467Z,96165.41
2022-12-29T21:47:00.415Z,96164.23
2022-12-29T21:49:31.761Z,96160.95
2022-12-29T21:52:03.408Z,96158.25
2022-12-29T21:54:56.591Z,96156.53
2022-12-29T21:57:48.512Z,96158.39
2022-12-29T22:00:35.216Z,96149.70
2022-12-29T22:03:30.935Z,96148.14
2022-12-29T22:06:20.137Z,96142.61
2022-12-29T22:09:12.035Z,96152.17
2022-12-29T22:11:58.779Z,96147.66
2022-12-29T22:14:27.431Z,96077.25
2022-12-29T22:17:14.443Z,96144.00
2022-12-29T22:19:42.947Z,96145.45
2022-12-29T22:22:11.527Z,96142.75
2022-12-29T22:24:40.111Z,96138.39
2022-12-29T22:27:08.866Z,96142.27
2022-12-29T22:29:37.495Z,96144.15
2022-12-29T22:32:06.302Z,96149.75
2022-12-29T22:34:34.973Z,96148.60
2022-12-29T22:37:03.677Z,96151.48
2022-12-29T22:39:32.284Z,96141.05
2022-12-29T22:42:00.915Z,96146.42
2022-12-29T22:44:29.568Z,96145.02
2022-12-29T22:47:00.389Z,96144.70
2022-12-29T22:49:29.523Z,96138.87
2022-12-29T22:51:58.080Z,96144.11
2022-12-29T22:54:26.975Z,96144.07
2022-12-29T22:56:55.617Z,96146.17
2022-12-29T22:59:26.101Z,96153.23
2022-12-29T23:01:55.052Z,96152.00
2022-12-29T23:05:01.896Z,96143.75
2022-12-29T23:06:54.210Z,96144.09
2022-12-29T23:09:24.090Z,96146.33
2022-12-29T23:11:53.515Z,96147.89
2022-12-29T23:14:22.168Z,96139.18
2022-12-29T23:16:50.739Z,96146.11
2022-12-29T23:19:19.536Z,96140.09
2022-12-29T23:21:48.134Z,96139.41
2022-12-29T23:24:16.828Z,96138.00
2022-12-29T23:26:48.264Z,96133.63
2022-12-29T23:29:19.613Z,96137.86
2022-12-29T23:31:54.570Z,96134.14
2022-12-29T23:34:22.611Z,96134.27
2022-12-29T23:36:51.544Z,96135.66
2022-12-29T23:39:24.572Z,96141.44
2022-12-29T23:41:54.053Z,96133.31
2022-12-29T23:44:22.724Z,96137.98
2022-12-29T23:46:51.484Z,96133.33
2022-12-29T23:49:20.190Z,96128.80
2022-12-29T23:51:48.826Z,96127.25
2022-12-29T23:54:19.257Z,96136.05
2022-12-29T23:56:48.132Z,96129.66
2022-12-29T23:59:16.924Z,96125.61
